Air Navigation Services of Czech Republic
Airport: LKKV Updated:  13.11.2018 20:01:07  UTC
 METAR LKKV 13.11. 20:00 ...
METAR LKKV 132000Z 25006KT 220V280 9999 SCT022 07/06 Q1028 RMK REG QNH 1024=
 TAF LKKV 13.11. 17:00 ...
TAF LKKV 131700Z 1318/1500 24005KT 9999 SCT005 SCT010      PROB30 TEMPO 1318/1400 BKN010      BECMG 1400/1403 VRB02KT 3000 BR SCT005      PROB30 TEMPO 1403/1406 0600 FG BKN001      BECMG 1406/1409 7000 SCT010=